Time;durP1;ratioP1;P1;durP2;ratioP2;P2;SDS_P1;SDS_P2;PMS_P1;PMS_P2;Temp;Humidity;BMP_temperature;BMP_pressure;BME280_temperature;BME280_humidity;BME280_pressure;Samples;Min_cycle;Max_cycle;Signal;HPM_P1;HPM_P2
2021/11/03 00:00:45;;;;;;;11.98;8.05;;;8.20;99.90;;;;;;5031941;28;20318;-76
2021/11/03 00:03:12;;;;;;;11.75;7.25;;;8.00;99.90;;;;;;5032178;28;20164;-76
2021/11/03 00:05:46;;;;;;;14.27;7.60;;;8.10;99.90;;;;;;5032167;28;20168;-76
2021/11/03 00:08:21;;;;;;;11.30;7.60;;;7.90;99.90;;;;;;5032044;28;20210;-76
2021/11/03 00:10:50;;;;;;;9.90;7.45;;;7.60;99.90;;;;;;5032180;28;20186;-76
2021/11/03 00:13:17;;;;;;;20.27;7.88;;;7.60;99.90;;;;;;5031828;28;20978;-78
2021/11/03 00:15:43;;;;;;;13.60;7.47;;;7.40;99.90;;;;;;5032272;28;20164;-76
2021/11/03 00:18:09;;;;;;;12.15;8.05;;;7.40;99.90;;;;;;5032094;28;20517;-76
2021/11/03 00:20:35;;;;;;;12.65;7.32;;;7.50;99.90;;;;;;5031800;28;20203;-76
2021/11/03 00:23:02;;;;;;;11.10;7.70;;;7.50;99.90;;;;;;5031826;28;20170;-76
2021/11/03 00:25:28;;;;;;;13.43;7.28;;;7.40;99.90;;;;;;5033077;28;20230;-76
2021/11/03 00:27:54;;;;;;;12.60;7.97;;;7.50;99.90;;;;;;5035602;28;20187;-76
2021/11/03 00:30:20;;;;;;;11.25;8.50;;;7.40;99.90;;;;;;5035609;28;20187;-76
2021/11/03 00:32:45;;;;;;;11.55;8.82;;;7.30;99.90;;;;;;5035710;28;20256;-76
2021/11/03 00:35:12;;;;;;;13.60;7.78;;;7.20;99.90;;;;;;5035662;28;20633;-76
2021/11/03 00:37:38;;;;;;;17.08;8.02;;;7.20;99.90;;;;;;5034720;28;20176;-76
2021/11/03 00:40:05;;;;;;;8.05;6.88;;;7.30;99.90;;;;;;5035359;28;20640;-76
2021/11/03 00:42:32;;;;;;;15.13;8.85;;;7.20;99.90;;;;;;5035610;28;20171;-77
2021/11/03 00:44:58;;;;;;;18.30;8.55;;;7.00;99.90;;;;;;5035584;28;20168;-77
2021/11/03 00:47:25;;;;;;;9.57;7.20;;;7.10;99.90;;;;;;5035745;28;20222;-77
2021/11/03 00:49:51;;;;;;;10.32;7.30;;;7.30;99.90;;;;;;5035161;28;20278;-76
2021/11/03 00:52:16;;;;;;;14.85;8.70;;;7.40;99.90;;;;;;5033960;28;20310;-76
2021/11/03 00:54:42;;;;;;;14.70;8.65;;;7.30;99.90;;;;;;5035167;28;20195;-83
2021/11/03 00:57:07;;;;;;;13.82;8.93;;;7.40;99.90;;;;;;5035281;28;20190;-77
2021/11/03 00:59:33;;;;;;;16.00;8.10;;;7.40;99.90;;;;;;5035205;28;20199;-76
2021/11/03 01:01:59;;;;;;;16.95;8.68;;;7.60;99.90;;;;;;5035066;28;20699;-76
2021/11/03 01:04:24;;;;;;;14.05;7.70;;;7.50;99.90;;;;;;5035076;28;20250;-76
2021/11/03 01:06:51;;;;;;;9.85;7.88;;;7.40;99.90;;;;;;5035100;28;20234;-76
2021/11/03 01:09:17;;;;;;;11.57;8.65;;;7.40;99.90;;;;;;5034710;28;20247;-76
2021/11/03 01:11:42;;;;;;;13.20;9.00;;;7.40;99.90;;;;;;5035120;28;20180;-76
2021/11/03 01:14:09;;;;;;;20.90;9.57;;;7.60;99.90;;;;;;5035026;28;20269;-76
2021/11/03 01:16:35;;;;;;;11.40;7.88;;;7.70;99.90;;;;;;5034688;28;20262;-76
2021/11/03 01:19:02;;;;;;;20.42;9.95;;;7.60;99.90;;;;;;5034920;28;20255;-76
2021/11/03 01:21:28;;;;;;;9.68;7.90;;;7.40;99.90;;;;;;5034655;28;20175;-76
2021/11/03 01:23:54;;;;;;;12.68;8.40;;;7.30;99.90;;;;;;5034872;28;20242;-82
2021/11/03 01:26:20;;;;;;;16.08;8.68;;;7.30;99.90;;;;;;5034914;28;20620;-76
2021/11/03 01:28:46;;;;;;;13.20;8.50;;;7.20;99.90;;;;;;5034647;28;20599;-76
2021/11/03 01:31:12;;;;;;;9.38;7.65;;;7.30;99.90;;;;;;5034500;28;20172;-76
2021/11/03 01:33:38;;;;;;;13.05;8.88;;;7.40;99.90;;;;;;5034513;28;20516;-76
2021/11/03 01:36:04;;;;;;;14.40;9.23;;;7.40;99.90;;;;;;5034263;28;20170;-77
2021/11/03 01:38:29;;;;;;;15.95;7.70;;;7.40;99.90;;;;;;5033770;28;20528;-82
2021/11/03 01:40:55;;;;;;;14.10;8.27;;;7.20;99.90;;;;;;5034361;28;20238;-76
2021/11/03 01:43:46;;;;;;;9.35;7.90;;;7.40;99.90;;;;;;5034170;28;20251;-76
2021/11/03 01:46:16;;;;;;;11.15;7.70;;;7.60;99.90;;;;;;5033023;28;20167;-76
2021/11/03 01:48:41;;;;;;;15.32;8.30;;;7.50;99.90;;;;;;5034331;28;20210;-76
2021/11/03 01:51:09;;;;;;;14.77;8.32;;;7.50;99.90;;;;;;5034007;28;20168;-76
2021/11/03 01:53:36;;;;;;;10.57;7.20;;;7.50;99.90;;;;;;5032999;28;20172;-76
2021/11/03 01:56:06;;;;;;;17.23;7.57;;;7.40;99.90;;;;;;5034200;28;20160;-76
2021/11/03 01:59:24;;;;;;;10.05;8.63;;;7.50;99.90;;;;;;5034344;28;20918;-76
2021/11/03 02:01:50;;;;;;;13.23;7.05;;;7.40;99.90;;;;;;5001363;28;20188;-76
2021/11/03 02:04:17;;;;;;;11.55;7.25;;;7.50;99.90;;;;;;5034071;28;20168;-77
2021/11/03 02:06:43;;;;;;;7.82;6.97;;;7.60;99.90;;;;;;5034316;28;20175;-76
2021/11/03 02:09:09;;;;;;;12.05;7.18;;;7.60;99.90;;;;;;5033963;28;20211;-76
2021/11/03 02:11:35;;;;;;;10.10;7.15;;;7.40;99.90;;;;;;5033820;28;20168;-76
2021/11/03 02:14:04;;;;;;;12.70;7.93;;;7.30;99.90;;;;;;5034022;28;20172;-75
2021/11/03 02:16:32;;;;;;;10.25;7.20;;;7.20;99.90;;;;;;5033849;28;20184;-76
2021/11/03 02:18:58;;;;;;;14.48;7.55;;;7.30;99.90;;;;;;5033674;28;20270;-77
2021/11/03 02:21:53;;;;;;;8.90;6.72;;;7.60;99.90;;;;;;5034186;28;20711;-76
2021/11/03 02:24:25;;;;;;;13.85;7.18;;;7.50;99.90;;;;;;5005655;28;20226;-76
2021/11/03 02:26:52;;;;;;;8.40;7.45;;;7.50;99.90;;;;;;5033487;28;20167;-76
2021/11/03 02:29:21;;;;;;;16.77;7.53;;;7.60;99.90;;;;;;5033519;28;20215;-76
2021/11/03 02:31:50;;;;;;;11.93;8.20;;;7.50;99.90;;;;;;5033471;28;20168;-76
2021/11/03 02:34:25;;;;;;;8.57;6.75;;;7.50;99.90;;;;;;5033633;28;20172;-76
2021/11/03 02:37:01;;;;;;;8.15;6.47;;;7.30;99.90;;;;;;5033291;28;20221;-76
2021/11/03 02:39:35;;;;;;;8.63;7.13;;;7.30;99.90;;;;;;5033396;28;20198;-77
2021/11/03 02:42:03;;;;;;;10.57;6.38;;;7.30;99.90;;;;;;5033467;28;20199;-76
2021/11/03 02:44:33;;;;;;;8.25;6.78;;;7.20;99.90;;;;;;5033528;28;20587;-76
2021/11/03 02:46:59;;;;;;;13.43;7.18;;;7.30;99.90;;;;;;5033649;28;20176;-77
2021/11/03 02:49:25;;;;;;;7.00;6.00;;;7.40;99.90;;;;;;5032735;28;20551;-76
2021/11/03 02:51:50;;;;;;;8.65;6.80;;;7.40;99.90;;;;;;5032938;28;20679;-76
2021/11/03 02:54:19;;;;;;;11.25;6.68;;;7.30;99.90;;;;;;5033032;28;20164;-76
2021/11/03 02:56:53;;;;;;;6.82;6.13;;;7.20;99.90;;;;;;5033341;28;20222;-76
2021/11/03 02:59:21;;;;;;;9.82;6.15;;;7.20;99.90;;;;;;5033307;28;20727;-76
2021/11/03 03:01:53;;;;;;;8.45;6.22;;;7.40;99.90;;;;;;5033392;28;20574;-77
2021/11/03 03:04:22;;;;;;;9.07;7.18;;;7.40;99.90;;;;;;5032892;28;20183;-77
2021/11/03 03:06:49;;;;;;;6.50;5.70;;;7.50;99.90;;;;;;5033065;28;20525;-76
2021/11/03 03:09:15;;;;;;;9.45;6.88;;;7.50;99.90;;;;;;5032472;28;20207;-76
2021/11/03 03:11:46;;;;;;;8.68;6.57;;;7.70;99.90;;;;;;5032806;28;20175;-76
2021/11/03 03:14:12;;;;;;;7.70;6.90;;;7.90;99.90;;;;;;5032808;28;20198;-76
2021/11/03 03:16:38;;;;;;;6.88;5.97;;;7.70;99.90;;;;;;5032622;28;20172;-76
2021/11/03 03:19:04;;;;;;;9.40;6.57;;;7.60;99.90;;;;;;5032546;28;20191;-76
2021/11/03 03:21:31;;;;;;;7.10;6.40;;;7.60;99.90;;;;;;5032776;28;20203;-76
2021/11/03 03:23:58;;;;;;;16.98;6.75;;;7.50;99.90;;;;;;5032910;28;20651;-76
2021/11/03 03:26:24;;;;;;;8.20;6.25;;;7.50;99.90;;;;;;5032827;28;20164;-76
2021/11/03 03:28:51;;;;;;;8.65;7.05;;;7.70;99.90;;;;;;5032509;28;20215;-76
2021/11/03 03:31:18;;;;;;;8.07;5.97;;;7.70;99.90;;;;;;5032510;28;20279;-77
2021/11/03 03:33:48;;;;;;;7.28;6.32;;;7.70;99.90;;;;;;5032596;28;20183;-76
2021/11/03 03:36:15;;;;;;;6.85;5.90;;;7.80;99.90;;;;;;5032508;28;20164;-76
2021/11/03 03:38:41;;;;;;;7.13;6.22;;;7.70;99.90;;;;;;5032646;28;20167;-76
2021/11/03 03:41:07;;;;;;;6.90;6.20;;;7.70;99.90;;;;;;5032129;28;20898;-81
2021/11/03 03:43:32;;;;;;;6.65;5.80;;;7.60;99.90;;;;;;5031951;28;20614;-76
2021/11/03 03:45:58;;;;;;;7.43;6.00;;;7.50;99.90;;;;;;5032439;28;20166;-76
2021/11/03 03:48:24;;;;;;;7.43;6.63;;;7.60;99.90;;;;;;5032329;28;20712;-76
2021/11/03 03:50:50;;;;;;;12.65;7.65;;;7.80;99.90;;;;;;5032170;28;20221;-76
2021/11/03 03:53:16;;;;;;;10.48;6.32;;;7.90;99.90;;;;;;5032388;28;20195;-76
2021/11/03 03:55:42;;;;;;;10.73;7.15;;;7.80;99.90;;;;;;5032090;28;20194;-76
2021/11/03 03:58:08;;;;;;;18.13;7.50;;;8.00;99.90;;;;;;5032110;28;20176;-76
2021/11/03 04:00:35;;;;;;;8.50;6.75;;;8.00;99.90;;;;;;5033451;28;20184;-76
2021/11/03 04:03:00;;;;;;;7.80;6.97;;;8.00;99.90;;;;;;5034804;28;20172;-75
2021/11/03 04:05:27;;;;;;;7.88;6.97;;;8.20;99.90;;;;;;5035816;28;20194;-76
2021/11/03 04:07:52;;;;;;;19.33;7.60;;;8.20;99.90;;;;;;5036185;28;20741;-76
2021/11/03 04:10:19;;;;;;;10.52;7.88;;;8.30;99.90;;;;;;5035990;28;20283;-76
2021/11/03 04:12:45;;;;;;;9.50;8.50;;;8.50;99.90;;;;;;5036045;28;20239;-76
2021/11/03 04:15:13;;;;;;;9.10;8.27;;;8.60;99.90;;;;;;5036066;28;20293;-76
2021/11/03 04:17:39;;;;;;;9.27;8.43;;;8.50;99.90;;;;;;5035970;28;20167;-76
2021/11/03 04:20:08;;;;;;;10.15;7.80;;;8.50;99.90;;;;;;5035950;28;20232;-76
2021/11/03 04:22:34;;;;;;;7.60;6.85;;;8.30;99.90;;;;;;5035962;28;20176;-76
2021/11/03 04:25:00;;;;;;;9.27;7.10;;;8.10;99.90;;;;;;5036134;28;20176;-76
2021/11/03 04:27:26;;;;;;;10.93;7.78;;;8.20;99.90;;;;;;5035906;28;20172;-76
2021/11/03 04:29:51;;;;;;;8.25;7.45;;;8.30;99.90;;;;;;5035791;28;20667;-76
2021/11/03 04:32:17;;;;;;;9.60;7.97;;;8.30;99.90;;;;;;5035411;28;20227;-76
2021/11/03 04:34:43;;;;;;;7.97;6.70;;;8.20;99.90;;;;;;5035690;28;20237;-76
2021/11/03 04:37:09;;;;;;;12.27;7.57;;;8.00;99.90;;;;;;5034442;28;20636;-76
2021/11/03 04:39:35;;;;;;;7.30;6.55;;;8.10;99.90;;;;;;5035739;28;20198;-76
2021/11/03 04:42:00;;;;;;;9.15;7.15;;;8.20;99.90;;;;;;5035661;28;20186;-77
2021/11/03 04:44:26;;;;;;;8.65;6.90;;;8.40;99.90;;;;;;5035546;28;20180;-77
2021/11/03 04:46:52;;;;;;;23.45;7.70;;;8.40;99.90;;;;;;5035263;28;20160;-76
2021/11/03 04:49:18;;;;;;;8.05;6.75;;;8.30;99.90;;;;;;5035048;28;20207;-76
2021/11/03 04:51:43;;;;;;;9.80;6.70;;;8.20;99.90;;;;;;5035637;28;20199;-76
2021/11/03 04:54:10;;;;;;;13.18;8.55;;;8.30;99.90;;;;;;5035610;28;20195;-77
2021/11/03 04:56:36;;;;;;;9.77;8.10;;;8.40;99.90;;;;;;5035670;28;20247;-76
2021/11/03 04:59:03;;;;;;;8.77;6.97;;;8.50;99.90;;;;;;5034916;28;20191;-76
2021/11/03 05:01:28;;;;;;;12.82;7.75;;;8.60;99.90;;;;;;5035141;28;20164;-76
2021/11/03 05:03:55;;;;;;;12.27;7.07;;;8.50;99.90;;;;;;5035021;28;20564;-76
2021/11/03 05:06:24;;;;;;;9.65;8.07;;;8.60;99.90;;;;;;5035003;28;20183;-77
2021/11/03 05:08:50;;;;;;;9.48;7.47;;;8.80;99.90;;;;;;5034910;28;20212;-77
2021/11/03 05:11:17;;;;;;;13.93;7.53;;;8.60;99.90;;;;;;5035016;28;20191;-76
2021/11/03 05:13:43;;;;;;;10.65;7.35;;;8.50;99.90;;;;;;5035435;28;20628;-76
2021/11/03 05:16:14;;;;;;;16.42;8.75;;;8.60;99.90;;;;;;5034526;28;20233;-76
2021/11/03 05:18:40;;;;;;;11.05;7.28;;;8.80;99.90;;;;;;5035171;28;20172;-76
2021/11/03 05:21:06;;;;;;;10.15;8.88;;;8.70;99.90;;;;;;5034955;28;20175;-77
2021/11/03 05:23:31;;;;;;;8.75;7.95;;;8.70;99.90;;;;;;5034683;28;20693;-76
2021/11/03 05:25:57;;;;;;;9.55;8.65;;;8.70;99.90;;;;;;5033473;28;20167;-76
2021/11/03 05:28:23;;;;;;;10.00;8.40;;;8.50;99.90;;;;;;5034309;28;20655;-76
2021/11/03 05:30:49;;;;;;;8.60;7.75;;;8.50;99.90;;;;;;5034447;28;20191;-76
2021/11/03 05:33:15;;;;;;;11.15;8.00;;;8.50;99.90;;;;;;5034878;28;20180;-76
2021/11/03 05:35:41;;;;;;;10.63;8.38;;;8.50;99.90;;;;;;5034471;28;20577;-76
2021/11/03 05:38:07;;;;;;;8.70;7.90;;;8.50;99.90;;;;;;5034723;28;20172;-78
2021/11/03 05:40:33;;;;;;;8.93;8.07;;;8.60;99.90;;;;;;5034505;28;20188;-76
2021/11/03 05:42:59;;;;;;;13.23;8.80;;;8.70;99.90;;;;;;5034578;28;20213;-77
2021/11/03 05:45:26;;;;;;;9.40;8.48;;;8.60;99.90;;;;;;5034414;28;20318;-75
2021/11/03 05:47:52;;;;;;;8.60;7.65;;;8.40;99.90;;;;;;5034317;28;20171;-75
2021/11/03 05:50:22;;;;;;;13.82;8.90;;;8.30;99.90;;;;;;5034121;28;20208;-75
2021/11/03 05:52:48;;;;;;;9.82;8.63;;;8.30;99.90;;;;;;5033276;28;20406;-75
2021/11/03 05:55:14;;;;;;;10.57;8.40;;;8.50;99.90;;;;;;5034420;28;20251;-75
2021/11/03 05:57:40;;;;;;;9.50;8.05;;;8.60;99.90;;;;;;5034191;28;20578;-75
2021/11/03 06:00:28;;;;;;;19.75;7.65;;;8.30;99.90;;;;;;5033978;28;20192;-76
2021/11/03 06:02:54;;;;;;;9.73;8.07;;;8.30;99.90;;;;;;5034222;28;20213;-75
2021/11/03 06:05:20;;;;;;;8.85;7.75;;;8.30;99.90;;;;;;5034008;28;20295;-75
2021/11/03 06:07:54;;;;;;;14.32;8.85;;;8.30;99.90;;;;;;5033909;28;20175;-75
2021/11/03 06:10:28;;;;;;;13.93;8.20;;;8.40;99.90;;;;;;5033603;28;20187;-75
2021/11/03 06:12:54;;;;;;;10.05;8.75;;;8.30;99.90;;;;;;5034250;28;20179;-75
2021/11/03 06:15:22;;;;;;;8.68;7.85;;;8.30;99.90;;;;;;5034187;28;20171;-75
2021/11/03 06:17:50;;;;;;;9.95;7.45;;;8.20;99.90;;;;;;5033656;28;20188;-75
2021/11/03 06:20:15;;;;;;;15.00;8.82;;;8.30;99.90;;;;;;5033578;28;21227;-75
2021/11/03 06:22:41;;;;;;;10.00;8.18;;;8.30;99.90;;;;;;5031476;28;20164;-75
2021/11/03 06:25:09;;;;;;;10.45;8.70;;;8.30;99.90;;;;;;5033622;28;20190;-75
2021/11/03 06:27:35;;;;;;;9.07;8.18;;;8.40;99.90;;;;;;5033173;28;20208;-75
2021/11/03 06:30:00;;;;;;;26.58;8.55;;;8.50;99.90;;;;;;5033077;28;20204;-75
2021/11/03 06:32:26;;;;;;;17.70;7.95;;;8.40;99.90;;;;;;5033316;28;20214;-75
2021/11/03 06:34:52;;;;;;;8.85;7.90;;;8.30;99.90;;;;;;5033105;28;20247;-75
2021/11/03 06:37:17;;;;;;;14.50;8.90;;;8.30;99.90;;;;;;5033663;28;20991;-75
2021/11/03 06:39:43;;;;;;;12.90;8.73;;;8.30;99.90;;;;;;5033334;28;20183;-76
2021/11/03 06:42:09;;;;;;;9.63;8.13;;;8.30;99.90;;;;;;5033319;28;20179;-75
2021/11/03 06:44:35;;;;;;;8.73;7.50;;;8.40;99.90;;;;;;5033312;28;20250;-75
2021/11/03 06:47:00;;;;;;;9.38;8.20;;;8.50;99.90;;;;;;5033107;28;20171;-75
2021/11/03 06:49:26;;;;;;;10.80;8.05;;;8.30;99.90;;;;;;5032359;28;20212;-75
2021/11/03 06:51:52;;;;;;;11.07;9.45;;;8.20;99.90;;;;;;5031424;28;20160;-75
2021/11/03 06:54:21;;;;;;;10.23;8.25;;;8.20;99.90;;;;;;5032933;28;20199;-75
2021/11/03 06:56:51;;;;;;;15.63;9.05;;;8.30;99.90;;;;;;5033193;28;20163;-75
2021/11/03 06:59:18;;;;;;;10.82;8.90;;;8.50;99.90;;;;;;5032606;28;20199;-75
2021/11/03 07:01:45;;;;;;;13.95;9.18;;;8.60;99.90;;;;;;5032489;28;20550;-75
2021/11/03 07:04:11;;;;;;;13.13;9.65;;;8.60;99.90;;;;;;5031793;28;20290;-75
2021/11/03 07:06:37;;;;;;;14.45;10.63;;;8.50;99.90;;;;;;5032331;28;20262;-78
2021/11/03 07:09:03;;;;;;;12.32;9.93;;;8.30;99.90;;;;;;5032412;28;20233;-75
2021/11/03 07:11:29;;;;;;;22.88;10.02;;;8.50;99.90;;;;;;5032367;28;20214;-75
2021/11/03 07:13:56;;;;;;;15.13;8.95;;;8.40;99.90;;;;;;5032504;28;20694;-75
2021/11/03 07:16:23;;;;;;;10.55;8.50;;;8.50;99.90;;;;;;5032305;28;20537;-75
2021/11/03 07:18:48;;;;;;;14.60;9.60;;;8.40;99.90;;;;;;5032614;28;20249;-76
2021/11/03 07:21:14;;;;;;;10.90;9.63;;;8.50;99.90;;;;;;5032366;28;20557;-75
2021/11/03 07:23:40;;;;;;;12.43;10.10;;;8.70;99.90;;;;;;5032322;28;20168;-76
2021/11/03 07:26:06;;;;;;;11.27;9.88;;;8.80;99.90;;;;;;5032443;28;20164;-76
2021/11/03 07:28:32;;;;;;;12.20;9.32;;;8.80;99.90;;;;;;5032465;28;20231;-76
2021/11/03 07:30:58;;;;;;;18.15;10.75;;;8.90;99.90;;;;;;5032373;28;20163;-76
2021/11/03 07:33:24;;;;;;;12.25;10.20;;;8.90;99.90;;;;;;5032276;28;20652;-80
2021/11/03 07:35:50;;;;;;;15.77;11.18;;;8.90;99.90;;;;;;5030895;28;20195;-76
2021/11/03 07:38:16;;;;;;;21.42;11.57;;;9.00;99.90;;;;;;5032286;28;20164;-76
2021/11/03 07:40:49;;;;;;;16.20;11.38;;;9.10;99.90;;;;;;5032307;28;20199;-76
2021/11/03 07:43:17;;;;;;;22.58;11.57;;;9.10;99.90;;;;;;5032210;28;20179;-76
2021/11/03 07:45:44;;;;;;;20.77;10.77;;;9.10;99.90;;;;;;5032159;28;20183;-76
2021/11/03 07:48:11;;;;;;;11.90;10.70;;;8.80;99.90;;;;;;5032057;28;20191;-75
2021/11/03 07:50:41;;;;;;;12.93;10.35;;;9.00;99.90;;;;;;5032130;28;20235;-76
2021/11/03 07:53:08;;;;;;;12.20;10.57;;;9.10;99.90;;;;;;5032247;28;20164;-80
2021/11/03 07:55:35;;;;;;;13.05;10.98;;;9.40;99.90;;;;;;5031698;28;20183;-76
2021/11/03 07:58:01;;;;;;;13.13;10.57;;;9.50;99.90;;;;;;5029849;28;20242;-76
2021/11/03 08:00:30;;;;;;;14.43;10.23;;;9.40;99.90;;;;;;5027654;28;20607;-76
2021/11/03 08:02:56;;;;;;;15.77;10.57;;;9.50;99.90;;;;;;5031344;28;20175;-80
2021/11/03 08:05:27;;;;;;;16.33;10.00;;;9.80;99.90;;;;;;5029290;28;20168;-77
2021/11/03 08:07:53;;;;;;;25.88;10.55;;;9.90;99.90;;;;;;5028692;28;20536;-78
2021/11/03 08:10:19;;;;;;;12.48;10.30;;;9.90;99.90;;;;;;5025514;28;20203;-77
2021/11/03 08:12:45;;;;;;;12.60;9.50;;;9.40;99.90;;;;;;5031571;28;20635;-78
2021/11/03 08:15:12;;;;;;;16.77;10.68;;;9.20;99.90;;;;;;5031124;28;20176;-76
2021/11/03 08:17:40;;;;;;;16.25;10.55;;;9.20;99.90;;;;;;5030996;28;20222;-77
2021/11/03 08:20:08;;;;;;;13.63;10.18;;;9.40;99.90;;;;;;5024490;28;20690;-77
2021/11/03 08:22:34;;;;;;;13.52;10.48;;;9.60;99.90;;;;;;5028912;28;20176;-77
2021/11/03 08:25:01;;;;;;;17.73;10.77;;;9.60;99.90;;;;;;5029801;28;20226;-77
2021/11/03 08:27:27;;;;;;;11.00;9.73;;;9.70;99.90;;;;;;5030189;28;20251;-76
2021/11/03 08:29:53;;;;;;;12.93;9.85;;;9.70;99.90;;;;;;5029603;28;20218;-77
2021/11/03 08:32:26;;;;;;;13.02;10.82;;;9.40;99.90;;;;;;5031619;28;20226;-76
2021/11/03 08:34:53;;;;;;;13.65;11.20;;;9.40;99.90;;;;;;5031506;28;20266;-79
2021/11/03 08:37:22;;;;;;;14.77;10.27;;;9.60;99.90;;;;;;5031307;28;20225;-76
2021/11/03 08:39:52;;;;;;;13.40;10.95;;;9.70;99.90;;;;;;5031497;28;20234;-76
2021/11/03 08:42:19;;;;;;;14.77;10.50;;;9.80;99.90;;;;;;5031132;28;20172;-79
2021/11/03 08:44:44;;;;;;;12.73;9.25;;;9.70;99.90;;;;;;5031026;28;20172;-77
2021/11/03 08:47:12;;;;;;;19.02;11.13;;;9.60;99.90;;;;;;5033428;28;20175;-77
2021/11/03 08:49:39;;;;;;;12.85;11.50;;;9.60;99.90;;;;;;5034646;28;20257;-79
2021/11/03 08:52:05;;;;;;;17.83;11.63;;;9.50;99.90;;;;;;5035270;28;20160;-76
2021/11/03 08:54:37;;;;;;;17.17;10.15;;;9.60;99.90;;;;;;5033101;28;20267;-76
2021/11/03 08:57:03;;;;;;;20.40;11.43;;;9.80;99.90;;;;;;5034566;28;20195;-84
2021/11/03 08:59:29;;;;;;;19.33;10.65;;;9.80;99.90;;;;;;5034914;28;20636;-77
2021/11/03 09:01:55;;;;;;;23.77;10.93;;;9.60;99.90;;;;;;5034932;28;20239;-77
2021/11/03 09:04:21;;;;;;;13.32;10.90;;;9.70;99.90;;;;;;5035614;28;20218;-76
2021/11/03 09:06:47;;;;;;;15.85;9.80;;;9.60;99.90;;;;;;5036775;28;20199;-76
2021/11/03 09:09:12;;;;;;;14.98;10.23;;;9.50;99.90;;;;;;5037464;28;20618;-76
2021/11/03 09:11:38;;;;;;;12.38;10.32;;;9.40;99.90;;;;;;5036368;28;20640;-76
2021/11/03 09:14:04;;;;;;;18.95;11.13;;;9.30;99.90;;;;;;5037762;28;20555;-76
2021/11/03 09:16:31;;;;;;;23.38;10.43;;;9.50;99.90;;;;;;5037475;28;20218;-76
2021/11/03 09:18:57;;;;;;;22.98;11.20;;;9.60;99.90;;;;;;5039115;28;20192;-77
2021/11/03 09:21:23;;;;;;;21.67;10.98;;;9.70;99.90;;;;;;5041599;28;20190;-78
2021/11/03 09:23:50;;;;;;;13.10;10.38;;;10.00;99.90;;;;;;5045618;28;20194;-75
2021/11/03 09:26:18;;;;;;;22.30;10.40;;;10.30;99.90;;;;;;5039137;28;20179;-76
2021/11/03 09:28:45;;;;;;;15.43;10.70;;;10.50;99.90;;;;;;5040781;28;20203;-76
2021/11/03 09:31:12;;;;;;;14.73;10.55;;;10.60;99.90;;;;;;5039996;28;20640;-76
2021/11/03 09:33:39;;;;;;;12.27;9.77;;;10.60;99.90;;;;;;5032854;28;20187;-76
2021/11/03 09:36:06;;;;;;;11.75;9.70;;;10.30;99.90;;;;;;5034343;28;20160;-76
2021/11/03 09:38:34;;;;;;;25.13;9.40;;;9.90;99.90;;;;;;5034067;28;20221;-77
2021/11/03 09:41:18;;;;;;;11.02;8.48;;;9.80;99.90;;;;;;5034152;28;20172;-76
2021/11/03 09:43:56;;;;;;;13.07;9.68;;;9.90;99.90;;;;;;5034135;28;20172;-80
2021/11/03 09:46:27;;;;;;;13.95;9.25;;;9.80;99.90;;;;;;5032720;28;20176;-76
2021/11/03 09:49:17;;;;;;;11.05;9.05;;;9.90;99.90;;;;;;5033193;28;20200;-78
2021/11/03 09:51:45;;;;;;;13.98;8.40;;;10.00;99.90;;;;;;5033357;28;20176;-76
2021/11/03 09:54:28;;;;;;;9.63;8.60;;;10.20;99.90;;;;;;5033622;28;20171;-75
2021/11/03 09:57:26;;;;;;;8.27;7.60;;;10.20;99.90;;;;;;5032168;28;20191;-76
2021/11/03 09:59:54;;;;;;;11.98;9.65;;;10.10;99.90;;;;;;5033438;28;20192;-75
2021/11/03 10:02:35;;;;;;;10.48;9.27;;;10.50;99.90;;;;;;5033810;28;20218;-80
2021/11/03 10:05:10;;;;;;;10.88;9.07;;;10.60;99.90;;;;;;5033287;28;20210;-77
2021/11/03 10:07:53;;;;;;;11.75;9.32;;;10.90;99.90;;;;;;5032433;28;20253;-79
2021/11/03 10:10:38;;;;;;;15.88;8.45;;;11.00;99.90;;;;;;5024202;28;20199;-76
2021/11/03 10:13:15;;;;;;;10.32;9.48;;;11.00;99.90;;;;;;5019353;28;20628;-76
2021/11/03 10:15:59;;;;;;;9.23;8.38;;;11.00;99.90;;;;;;5028088;28;20163;-77
2021/11/03 10:18:27;;;;;;;21.90;8.68;;;11.00;99.90;;;;;;5031444;28;20171;-78
2021/11/03 10:21:16;;;;;;;10.00;9.00;;;10.70;99.90;;;;;;5032381;28;20172;-77
2021/11/03 10:23:55;;;;;;;9.23;8.27;;;10.80;99.90;;;;;;5029294;28;20538;-76
2021/11/03 10:26:24;;;;;;;19.92;9.00;;;10.70;99.90;;;;;;5028953;28;20225;-76
2021/11/03 10:29:08;;;;;;;11.35;9.68;;;11.10;99.90;;;;;;5032631;28;20215;-77
2021/11/03 10:31:48;;;;;;;19.40;9.13;;;10.80;99.90;;;;;;5016122;28;20562;-75
2021/11/03 10:34:34;;;;;;;13.00;8.52;;;10.70;99.90;;;;;;5024852;28;20552;-76
2021/11/03 10:37:15;;;;;;;11.18;10.00;;;10.70;99.90;;;;;;5017292;28;20192;-77
2021/11/03 10:40:04;;;;;;;11.70;9.32;;;10.70;99.90;;;;;;5028037;28;20200;-81
2021/11/03 10:42:47;;;;;;;14.55;9.13;;;10.50;99.90;;;;;;5028940;28;20243;-79
2021/11/03 10:45:15;;;;;;;15.05;10.75;;;10.40;99.90;;;;;;5031265;28;20172;-78
2021/11/03 10:47:46;;;;;;;12.07;10.35;;;10.50;99.90;;;;;;5031755;28;20627;-78
2021/11/03 10:50:27;;;;;;;12.65;10.55;;;10.60;99.90;;;;;;5031237;28;20215;-76
2021/11/03 10:53:17;;;;;;;12.45;9.63;;;10.30;99.90;;;;;;5030886;28;20171;-76
2021/11/03 10:55:48;;;;;;;13.45;9.88;;;10.40;99.90;;;;;;5029536;28;20624;-76
2021/11/03 10:58:23;;;;;;;24.70;9.63;;;10.40;99.90;;;;;;5031432;28;20620;-74
2021/11/03 11:01:12;;;;;;;16.50;11.82;;;10.40;99.90;;;;;;5030726;28;20194;-75
2021/11/03 11:04:02;;;;;;;14.75;9.38;;;10.50;99.90;;;;;;5031874;28;20159;-77
2021/11/03 11:06:36;;;;;;;33.53;10.82;;;10.90;99.90;;;;;;5023739;28;20219;-75
2021/11/03 11:09:11;;;;;;;14.45;9.80;;;10.80;99.90;;;;;;5031054;28;20310;-75
2021/11/03 11:11:40;;;;;;;10.35;9.23;;;10.90;99.90;;;;;;5031451;28;20171;-74
2021/11/03 11:14:18;;;;;;;13.23;10.07;;;11.00;99.90;;;;;;5030301;28;20180;-74
2021/11/03 11:16:50;;;;;;;12.70;9.80;;;11.00;99.90;;;;;;5030352;28;20175;-76
2021/11/03 11:19:30;;;;;;;11.52;9.70;;;11.00;99.90;;;;;;5029868;28;20553;-74
2021/11/03 11:22:34;;;;;;;11.70;9.68;;;11.30;99.90;;;;;;5030992;28;20159;-75
2021/11/03 11:25:36;;;;;;;11.85;10.15;;;11.70;99.90;;;;;;5030979;28;20230;-74
2021/11/03 11:28:45;;;;;;;14.05;9.57;;;11.50;99.90;;;;;;5030611;28;20164;-75
2021/11/03 11:31:28;;;;;;;13.02;9.48;;;11.30;99.90;;;;;;5030873;28;20175;-75
2021/11/03 11:34:02;;;;;;;12.48;8.60;;;11.20;99.90;;;;;;5030925;28;20171;-74
2021/11/03 11:36:50;;;;;;;16.35;10.05;;;11.40;99.90;;;;;;5030907;28;20510;-75
2021/11/03 11:39:24;;;;;;;12.13;9.38;;;11.30;99.90;;;;;;5031384;28;20237;-74
2021/11/03 11:41:53;;;;;;;13.38;9.15;;;11.30;99.90;;;;;;5031178;28;20179;-74
2021/11/03 11:44:31;;;;;;;13.80;9.90;;;11.10;99.90;;;;;;5029619;28;20221;-74
2021/11/03 11:47:04;;;;;;;18.63;10.75;;;10.80;99.90;;;;;;5031852;28;20246;-74
2021/11/03 11:49:33;;;;;;;20.35;9.93;;;11.10;99.90;;;;;;5031773;28;20211;-75
2021/11/03 11:52:05;;;;;;;17.05;9.18;;;11.30;99.90;;;;;;5031951;28;20174;-75
2021/11/03 11:54:55;;;;;;;14.57;9.70;;;11.30;99.90;;;;;;5032674;28;20171;-76
2021/11/03 11:57:22;;;;;;;10.73;9.63;;;11.10;99.90;;;;;;5032104;28;20198;-77
2021/11/03 12:00:03;;;;;;;13.65;9.52;;;11.30;99.90;;;;;;5031462;28;20191;-76
2021/11/03 12:02:33;;;;;;;12.05;7.97;;;11.30;99.90;;;;;;5030741;28;20592;-77
2021/11/03 12:05:19;;;;;;;14.85;9.27;;;11.10;99.90;;;;;;5031332;28;20179;-74
2021/11/03 12:08:09;;;;;;;16.13;8.52;;;11.40;99.90;;;;;;5030443;28;20164;-74
2021/11/03 12:10:38;;;;;;;14.35;9.63;;;11.50;99.90;;;;;;5029651;28;20206;-74
2021/11/03 12:13:04;;;;;;;14.40;9.60;;;11.60;99.90;;;;;;5031496;28;20172;-76
2021/11/03 12:15:44;;;;;;;11.82;9.85;;;11.90;99.90;;;;;;5031738;28;20671;-74
2021/11/03 12:18:27;;;;;;;14.52;9.60;;;12.00;99.90;;;;;;5031374;28;20179;-74
2021/11/03 12:20:58;;;;;;;24.45;11.70;;;11.50;99.90;;;;;;5031669;28;20164;-75
2021/11/03 12:23:55;;;;;;;16.40;10.18;;;11.60;99.90;;;;;;5033705;28;20694;-75
2021/11/03 12:26:29;;;;;;;16.27;9.50;;;11.70;99.90;;;;;;5035406;28;20176;-75
2021/11/03 12:28:54;;;;;;;12.68;9.75;;;11.80;99.90;;;;;;5034863;28;20234;-75
2021/11/03 12:31:22;;;;;;;29.92;11.20;;;11.90;99.90;;;;;;5035681;28;20168;-74
2021/11/03 12:34:03;;;;;;;11.98;10.63;;;12.00;99.90;;;;;;5035461;28;20192;-74
2021/11/03 12:36:33;;;;;;;21.95;10.63;;;12.00;99.90;;;;;;5035562;28;20293;-74
2021/11/03 12:39:04;;;;;;;21.00;11.60;;;11.90;99.90;;;;;;5035425;28;20192;-74
2021/11/03 12:41:41;;;;;;;16.05;10.30;;;12.00;99.90;;;;;;5034933;28;20168;-74
2021/11/03 12:44:21;;;;;;;17.75;10.80;;;12.10;99.90;;;;;;5035022;28;20526;-74
2021/11/03 12:46:47;;;;;;;14.55;11.15;;;12.30;99.90;;;;;;5035133;28;20167;-74
2021/11/03 12:49:16;;;;;;;25.83;11.63;;;12.30;99.90;;;;;;5034919;28;20759;-74
2021/11/03 12:51:51;;;;;;;11.57;9.18;;;12.30;99.90;;;;;;5034997;28;20651;-74
2021/11/03 12:54:20;;;;;;;10.52;9.00;;;12.30;99.90;;;;;;5034676;28;20254;-74
2021/11/03 12:57:03;;;;;;;15.27;9.25;;;12.00;99.90;;;;;;5034668;28;20172;-75
2021/11/03 12:59:35;;;;;;;14.00;9.40;;;11.80;99.90;;;;;;5034082;28;20196;-74